sensor_id;sensor_type;location;lat;lon;timestamp;P1;durP1;ratioP1;P2;durP2;ratioP2
21192;SDS011;10754;51.106;7.164;2022-12-29T00:01:29;0.70;;;0.40;;
21192;SDS011;10754;51.106;7.164;2022-12-29T00:03:55;0.60;;;0.60;;
21192;SDS011;10754;51.106;7.164;2022-12-29T00:06:21;0.63;;;0.50;;
21192;SDS011;10754;51.106;7.164;2022-12-29T00:08:46;0.53;;;0.40;;
21192;SDS011;10754;51.106;7.164;2022-12-29T00:11:13;0.63;;;0.63;;
21192;SDS011;10754;51.106;7.164;2022-12-29T00:13:43;0.53;;;0.50;;
21192;SDS011;10754;51.106;7.164;2022-12-29T00:16:28;0.20;;;0.20;;
21192;SDS011;10754;51.106;7.164;2022-12-29T00:18:56;0.30;;;0.30;;
21192;SDS011;10754;51.106;7.164;2022-12-29T00:21:23;0.37;;;0.37;;
21192;SDS011;10754;51.106;7.164;2022-12-29T00:24:13;0.30;;;0.20;;
21192;SDS011;10754;51.106;7.164;2022-12-29T00:27:08;1.60;;;0.70;;
21192;SDS011;10754;51.106;7.164;2022-12-29T00:29:54;0.40;;;0.40;;
21192;SDS011;10754;51.106;7.164;2022-12-29T00:32:39;0.40;;;0.30;;
21192;SDS011;10754;51.106;7.164;2022-12-29T00:35:30;0.27;;;0.20;;
21192;SDS011;10754;51.106;7.164;2022-12-29T00:38:02;0.20;;;0.13;;
21192;SDS011;10754;51.106;7.164;2022-12-29T00:40:48;0.30;;;0.30;;
21192;SDS011;10754;51.106;7.164;2022-12-29T00:43:32;1.93;;;0.37;;
21192;SDS011;10754;51.106;7.164;2022-12-29T00:46:16;0.30;;;0.30;;
21192;SDS011;10754;51.106;7.164;2022-12-29T00:48:42;0.40;;;0.30;;
21192;SDS011;10754;51.106;7.164;2022-12-29T00:51:26;0.50;;;0.30;;
21192;SDS011;10754;51.106;7.164;2022-12-29T00:53:52;0.30;;;0.30;;
21192;SDS011;10754;51.106;7.164;2022-12-29T00:56:17;0.67;;;0.50;;
21192;SDS011;10754;51.106;7.164;2022-12-29T00:58:43;1.33;;;0.50;;
21192;SDS011;10754;51.106;7.164;2022-12-29T01:01:08;0.37;;;0.27;;
21192;SDS011;10754;51.106;7.164;2022-12-29T01:03:35;0.10;;;0.10;;
21192;SDS011;10754;51.106;7.164;2022-12-29T01:06:02;0.30;;;0.30;;
21192;SDS011;10754;51.106;7.164;2022-12-29T01:08:30;0.40;;;0.40;;
21192;SDS011;10754;51.106;7.164;2022-12-29T01:11:03;0.60;;;0.30;;
21192;SDS011;10754;51.106;7.164;2022-12-29T01:13:30;0.30;;;0.30;;
21192;SDS011;10754;51.106;7.164;2022-12-29T01:15:56;0.40;;;0.40;;
21192;SDS011;10754;51.106;7.164;2022-12-29T01:18:22;0.90;;;0.50;;
21192;SDS011;10754;51.106;7.164;2022-12-29T01:20:49;0.20;;;0.13;;
21192;SDS011;10754;51.106;7.164;2022-12-29T01:23:15;0.60;;;0.37;;
21192;SDS011;10754;51.106;7.164;2022-12-29T01:25:41;0.20;;;0.20;;
21192;SDS011;10754;51.106;7.164;2022-12-29T01:28:06;0.20;;;0.20;;
21192;SDS011;10754;51.106;7.164;2022-12-29T01:30:33;0.30;;;0.30;;
21192;SDS011;10754;51.106;7.164;2022-12-29T01:32:59;0.30;;;0.20;;
21192;SDS011;10754;51.106;7.164;2022-12-29T01:35:24;1.73;;;0.30;;
21192;SDS011;10754;51.106;7.164;2022-12-29T01:37:50;0.30;;;0.20;;
21192;SDS011;10754;51.106;7.164;2022-12-29T01:40:15;0.40;;;0.20;;
21192;SDS011;10754;51.106;7.164;2022-12-29T01:42:41;0.50;;;0.20;;
21192;SDS011;10754;51.106;7.164;2022-12-29T01:45:11;0.20;;;0.20;;
21192;SDS011;10754;51.106;7.164;2022-12-29T01:47:39;0.17;;;0.17;;
21192;SDS011;10754;51.106;7.164;2022-12-29T01:50:20;0.50;;;0.23;;
21192;SDS011;10754;51.106;7.164;2022-12-29T01:52:54;0.37;;;0.20;;
21192;SDS011;10754;51.106;7.164;2022-12-29T01:55:23;0.60;;;0.13;;
21192;SDS011;10754;51.106;7.164;2022-12-29T01:57:51;0.20;;;0.20;;
21192;SDS011;10754;51.106;7.164;2022-12-29T02:00:20;0.10;;;0.10;;
21192;SDS011;10754;51.106;7.164;2022-12-29T02:02:47;0.40;;;0.27;;
21192;SDS011;10754;51.106;7.164;2022-12-29T02:05:21;0.10;;;0.10;;
21192;SDS011;10754;51.106;7.164;2022-12-29T02:07:52;0.33;;;0.20;;
21192;SDS011;10754;51.106;7.164;2022-12-29T02:10:22;0.27;;;0.20;;
21192;SDS011;10754;51.106;7.164;2022-12-29T02:12:50;0.57;;;0.10;;
21192;SDS011;10754;51.106;7.164;2022-12-29T02:15:17;0.33;;;0.20;;
21192;SDS011;10754;51.106;7.164;2022-12-29T02:18:08;0.40;;;0.30;;
21192;SDS011;10754;51.106;7.164;2022-12-29T02:26:42;0.23;;;0.13;;
21192;SDS011;10754;51.106;7.164;2022-12-29T02:29:25;0.47;;;0.37;;
21192;SDS011;10754;51.106;7.164;2022-12-29T02:32:50;0.50;;;0.33;;
21192;SDS011;10754;51.106;7.164;2022-12-29T02:35:19;0.27;;;0.10;;
21192;SDS011;10754;51.106;7.164;2022-12-29T02:40:39;1.30;;;0.30;;
21192;SDS011;10754;51.106;7.164;2022-12-29T02:43:50;0.60;;;0.20;;
21192;SDS011;10754;51.106;7.164;2022-12-29T02:49:33;0.70;;;0.30;;
21192;SDS011;10754;51.106;7.164;2022-12-29T02:52:15;0.57;;;0.30;;
21192;SDS011;10754;51.106;7.164;2022-12-29T02:54:44;0.60;;;0.43;;
21192;SDS011;10754;51.106;7.164;2022-12-29T02:59:56;0.60;;;0.30;;
21192;SDS011;10754;51.106;7.164;2022-12-29T03:05:04;1.43;;;0.40;;
21192;SDS011;10754;51.106;7.164;2022-12-29T03:11:30;0.33;;;0.30;;
21192;SDS011;10754;51.106;7.164;2022-12-29T03:13:44;0.40;;;0.30;;
21192;SDS011;10754;51.106;7.164;2022-12-29T03:16:37;0.40;;;0.30;;
21192;SDS011;10754;51.106;7.164;2022-12-29T03:19:12;0.40;;;0.30;;
21192;SDS011;10754;51.106;7.164;2022-12-29T03:21:49;0.40;;;0.20;;
21192;SDS011;10754;51.106;7.164;2022-12-29T03:24:46;0.30;;;0.20;;
21192;SDS011;10754;51.106;7.164;2022-12-29T03:27:19;0.93;;;0.20;;
21192;SDS011;10754;51.106;7.164;2022-12-29T03:29:53;1.53;;;0.30;;
21192;SDS011;10754;51.106;7.164;2022-12-29T03:32:23;0.27;;;0.20;;
21192;SDS011;10754;51.106;7.164;2022-12-29T03:34:52;0.10;;;0.10;;
21192;SDS011;10754;51.106;7.164;2022-12-29T03:37:20;1.03;;;0.37;;
21192;SDS011;10754;51.106;7.164;2022-12-29T03:39:50;0.20;;;0.20;;
21192;SDS011;10754;51.106;7.164;2022-12-29T03:42:17;0.57;;;0.27;;
21192;SDS011;10754;51.106;7.164;2022-12-29T03:44:45;1.17;;;0.20;;
21192;SDS011;10754;51.106;7.164;2022-12-29T03:47:12;0.30;;;0.20;;
21192;SDS011;10754;51.106;7.164;2022-12-29T03:49:39;0.33;;;0.23;;
21192;SDS011;10754;51.106;7.164;2022-12-29T03:52:04;0.90;;;0.20;;
21192;SDS011;10754;51.106;7.164;2022-12-29T03:54:30;0.95;;;0.30;;
21192;SDS011;10754;51.106;7.164;2022-12-29T03:56:56;0.50;;;0.20;;
21192;SDS011;10754;51.106;7.164;2022-12-29T03:59:22;0.73;;;0.40;;
21192;SDS011;10754;51.106;7.164;2022-12-29T04:01:47;0.17;;;0.17;;
21192;SDS011;10754;51.106;7.164;2022-12-29T04:04:13;0.60;;;0.20;;
21192;SDS011;10754;51.106;7.164;2022-12-29T04:06:38;2.07;;;0.43;;
21192;SDS011;10754;51.106;7.164;2022-12-29T04:09:04;0.10;;;0.10;;
21192;SDS011;10754;51.106;7.164;2022-12-29T04:11:30;0.50;;;0.27;;
21192;SDS011;10754;51.106;7.164;2022-12-29T04:13:55;0.70;;;0.30;;
21192;SDS011;10754;51.106;7.164;2022-12-29T04:16:21;0.40;;;0.20;;
21192;SDS011;10754;51.106;7.164;2022-12-29T04:18:46;0.47;;;0.30;;
21192;SDS011;10754;51.106;7.164;2022-12-29T04:21:12;0.27;;;0.27;;
21192;SDS011;10754;51.106;7.164;2022-12-29T04:23:38;0.40;;;0.30;;
21192;SDS011;10754;51.106;7.164;2022-12-29T04:26:04;1.07;;;0.30;;
21192;SDS011;10754;51.106;7.164;2022-12-29T04:28:34;0.25;;;0.20;;
21192;SDS011;10754;51.106;7.164;2022-12-29T04:31:01;0.77;;;0.20;;
21192;SDS011;10754;51.106;7.164;2022-12-29T04:33:27;0.43;;;0.30;;
21192;SDS011;10754;51.106;7.164;2022-12-29T04:35:52;0.10;;;0.10;;
21192;SDS011;10754;51.106;7.164;2022-12-29T04:38:19;0.60;;;0.27;;
21192;SDS011;10754;51.106;7.164;2022-12-29T04:40:45;1.35;;;0.35;;
21192;SDS011;10754;51.106;7.164;2022-12-29T04:43:11;0.40;;;0.30;;
21192;SDS011;10754;51.106;7.164;2022-12-29T04:45:38;0.80;;;0.20;;
21192;SDS011;10754;51.106;7.164;2022-12-29T04:48:08;0.20;;;0.20;;
21192;SDS011;10754;51.106;7.164;2022-12-29T04:50:33;0.70;;;0.30;;
21192;SDS011;10754;51.106;7.164;2022-12-29T04:52:59;0.50;;;0.27;;
21192;SDS011;10754;51.106;7.164;2022-12-29T04:55:25;0.40;;;0.32;;
21192;SDS011;10754;51.106;7.164;2022-12-29T04:57:51;0.80;;;0.30;;
21192;SDS011;10754;51.106;7.164;2022-12-29T05:00:16;0.40;;;0.30;;
21192;SDS011;10754;51.106;7.164;2022-12-29T05:02:42;0.60;;;0.20;;
21192;SDS011;10754;51.106;7.164;2022-12-29T05:05:07;0.50;;;0.20;;
21192;SDS011;10754;51.106;7.164;2022-12-29T05:07:33;0.30;;;0.30;;
21192;SDS011;10754;51.106;7.164;2022-12-29T05:09:59;1.20;;;0.20;;
21192;SDS011;10754;51.106;7.164;2022-12-29T05:12:24;0.30;;;0.20;;
21192;SDS011;10754;51.106;7.164;2022-12-29T05:14:50;0.23;;;0.10;;
21192;SDS011;10754;51.106;7.164;2022-12-29T05:17:15;1.80;;;0.20;;
21192;SDS011;10754;51.106;7.164;2022-12-29T05:19:41;0.73;;;0.30;;
21192;SDS011;10754;51.106;7.164;2022-12-29T05:22:07;0.47;;;0.30;;
21192;SDS011;10754;51.106;7.164;2022-12-29T05:24:32;0.90;;;0.40;;
21192;SDS011;10754;51.106;7.164;2022-12-29T05:26:58;0.93;;;0.30;;
21192;SDS011;10754;51.106;7.164;2022-12-29T05:29:23;0.45;;;0.28;;
21192;SDS011;10754;51.106;7.164;2022-12-29T05:31:49;1.03;;;0.30;;
21192;SDS011;10754;51.106;7.164;2022-12-29T05:34:14;0.30;;;0.30;;
21192;SDS011;10754;51.106;7.164;2022-12-29T05:36:40;0.65;;;0.20;;
21192;SDS011;10754;51.106;7.164;2022-12-29T05:39:05;1.83;;;0.30;;
21192;SDS011;10754;51.106;7.164;2022-12-29T05:41:32;1.48;;;0.40;;
21192;SDS011;10754;51.106;7.164;2022-12-29T05:43:58;1.57;;;0.37;;
21192;SDS011;10754;51.106;7.164;2022-12-29T05:46:24;1.27;;;0.30;;
21192;SDS011;10754;51.106;7.164;2022-12-29T05:48:49;1.77;;;0.30;;
21192;SDS011;10754;51.106;7.164;2022-12-29T05:51:15;0.75;;;0.30;;
21192;SDS011;10754;51.106;7.164;2022-12-29T05:53:40;1.33;;;0.30;;
21192;SDS011;10754;51.106;7.164;2022-12-29T05:56:06;0.27;;;0.27;;
21192;SDS011;10754;51.106;7.164;2022-12-29T05:58:32;0.97;;;0.63;;
21192;SDS011;10754;51.106;7.164;2022-12-29T06:01:01;0.50;;;0.30;;
21192;SDS011;10754;51.106;7.164;2022-12-29T06:03:26;0.47;;;0.30;;
21192;SDS011;10754;51.106;7.164;2022-12-29T06:05:52;1.70;;;0.20;;
21192;SDS011;10754;51.106;7.164;2022-12-29T06:08:17;0.70;;;0.35;;
21192;SDS011;10754;51.106;7.164;2022-12-29T06:10:43;0.88;;;0.40;;
21192;SDS011;10754;51.106;7.164;2022-12-29T06:13:08;1.10;;;0.30;;
21192;SDS011;10754;51.106;7.164;2022-12-29T06:15:34;0.95;;;0.30;;
21192;SDS011;10754;51.106;7.164;2022-12-29T06:18:00;0.20;;;0.13;;
21192;SDS011;10754;51.106;7.164;2022-12-29T06:20:26;0.37;;;0.20;;
21192;SDS011;10754;51.106;7.164;2022-12-29T06:22:52;1.10;;;0.35;;
21192;SDS011;10754;51.106;7.164;2022-12-29T06:25:17;0.67;;;0.20;;
21192;SDS011;10754;51.106;7.164;2022-12-29T06:27:43;1.10;;;0.60;;
21192;SDS011;10754;51.106;7.164;2022-12-29T06:30:09;0.90;;;0.40;;
21192;SDS011;10754;51.106;7.164;2022-12-29T06:32:35;1.25;;;0.60;;
21192;SDS011;10754;51.106;7.164;2022-12-29T06:35:01;0.93;;;0.30;;
21192;SDS011;10754;51.106;7.164;2022-12-29T06:37:27;0.35;;;0.30;;
21192;SDS011;10754;51.106;7.164;2022-12-29T06:39:52;0.70;;;0.30;;
21192;SDS011;10754;51.106;7.164;2022-12-29T06:42:18;0.97;;;0.40;;
21192;SDS011;10754;51.106;7.164;2022-12-29T06:44:44;1.73;;;0.60;;
21192;SDS011;10754;51.106;7.164;2022-12-29T06:47:09;0.90;;;0.30;;
21192;SDS011;10754;51.106;7.164;2022-12-29T06:49:35;0.90;;;0.40;;
21192;SDS011;10754;51.106;7.164;2022-12-29T06:52:01;1.17;;;0.50;;
21192;SDS011;10754;51.106;7.164;2022-12-29T06:54:29;1.63;;;0.50;;
21192;SDS011;10754;51.106;7.164;2022-12-29T06:56:55;0.60;;;0.47;;
21192;SDS011;10754;51.106;7.164;2022-12-29T06:59:20;0.47;;;0.30;;
21192;SDS011;10754;51.106;7.164;2022-12-29T07:01:46;0.73;;;0.50;;
21192;SDS011;10754;51.106;7.164;2022-12-29T07:04:11;0.90;;;0.30;;
21192;SDS011;10754;51.106;7.164;2022-12-29T07:06:37;0.52;;;0.20;;
21192;SDS011;10754;51.106;7.164;2022-12-29T07:09:02;0.60;;;0.20;;
21192;SDS011;10754;51.106;7.164;2022-12-29T07:11:28;0.55;;;0.30;;
21192;SDS011;10754;51.106;7.164;2022-12-29T07:13:53;0.73;;;0.20;;
21192;SDS011;10754;51.106;7.164;2022-12-29T07:16:19;1.15;;;0.40;;
21192;SDS011;10754;51.106;7.164;2022-12-29T07:18:45;1.93;;;0.53;;
21192;SDS011;10754;51.106;7.164;2022-12-29T07:21:11;1.40;;;0.50;;
21192;SDS011;10754;51.106;7.164;2022-12-29T07:23:37;1.13;;;0.43;;
21192;SDS011;10754;51.106;7.164;2022-12-29T07:26:03;0.93;;;0.25;;
21192;SDS011;10754;51.106;7.164;2022-12-29T07:28:31;0.93;;;0.40;;
21192;SDS011;10754;51.106;7.164;2022-12-29T07:30:57;2.58;;;0.80;;
21192;SDS011;10754;51.106;7.164;2022-12-29T07:33:24;1.13;;;0.38;;
21192;SDS011;10754;51.106;7.164;2022-12-29T07:35:50;1.27;;;0.52;;
21192;SDS011;10754;51.106;7.164;2022-12-29T07:38:16;1.13;;;0.50;;
21192;SDS011;10754;51.106;7.164;2022-12-29T07:40:42;0.68;;;0.32;;
21192;SDS011;10754;51.106;7.164;2022-12-29T07:43:08;2.23;;;0.53;;
21192;SDS011;10754;51.106;7.164;2022-12-29T07:45:33;1.90;;;0.73;;
21192;SDS011;10754;51.106;7.164;2022-12-29T07:47:59;2.00;;;0.52;;
21192;SDS011;10754;51.106;7.164;2022-12-29T07:50:24;0.70;;;0.30;;
21192;SDS011;10754;51.106;7.164;2022-12-29T07:52:50;3.33;;;0.60;;
21192;SDS011;10754;51.106;7.164;2022-12-29T07:55:15;1.97;;;0.40;;
21192;SDS011;10754;51.106;7.164;2022-12-29T07:57:41;1.25;;;0.60;;
21192;SDS011;10754;51.106;7.164;2022-12-29T08:00:08;2.00;;;0.57;;
21192;SDS011;10754;51.106;7.164;2022-12-29T08:02:34;2.10;;;0.50;;
21192;SDS011;10754;51.106;7.164;2022-12-29T08:05:00;2.23;;;0.70;;
21192;SDS011;10754;51.106;7.164;2022-12-29T08:07:26;2.05;;;0.50;;
21192;SDS011;10754;51.106;7.164;2022-12-29T08:09:51;2.10;;;0.70;;
21192;SDS011;10754;51.106;7.164;2022-12-29T08:12:17;1.75;;;0.60;;
21192;SDS011;10754;51.106;7.164;2022-12-29T08:14:43;1.65;;;0.70;;
21192;SDS011;10754;51.106;7.164;2022-12-29T08:17:08;0.77;;;0.40;;
21192;SDS011;10754;51.106;7.164;2022-12-29T08:19:34;1.53;;;0.60;;
21192;SDS011;10754;51.106;7.164;2022-12-29T08:22:00;2.10;;;0.90;;
21192;SDS011;10754;51.106;7.164;2022-12-29T08:24:26;1.95;;;0.55;;
21192;SDS011;10754;51.106;7.164;2022-12-29T08:26:52;1.87;;;0.80;;
21192;SDS011;10754;51.106;7.164;2022-12-29T08:29:17;1.53;;;0.63;;
21192;SDS011;10754;51.106;7.164;2022-12-29T08:31:43;2.08;;;0.70;;
21192;SDS011;10754;51.106;7.164;2022-12-29T08:34:08;4.40;;;0.87;;
21192;SDS011;10754;51.106;7.164;2022-12-29T08:36:34;1.97;;;0.80;;
21192;SDS011;10754;51.106;7.164;2022-12-29T08:39:00;1.57;;;0.60;;
21192;SDS011;10754;51.106;7.164;2022-12-29T08:41:25;1.17;;;0.38;;
21192;SDS011;10754;51.106;7.164;2022-12-29T08:43:51;2.60;;;0.70;;
21192;SDS011;10754;51.106;7.164;2022-12-29T08:46:16;1.50;;;0.80;;
21192;SDS011;10754;51.106;7.164;2022-12-29T08:48:42;2.73;;;0.83;;
21192;SDS011;10754;51.106;7.164;2022-12-29T08:51:08;1.43;;;0.77;;
21192;SDS011;10754;51.106;7.164;2022-12-29T08:53:33;3.80;;;0.90;;
21192;SDS011;10754;51.106;7.164;2022-12-29T08:55:59;3.83;;;1.27;;
21192;SDS011;10754;51.106;7.164;2022-12-29T08:58:26;2.13;;;0.77;;
21192;SDS011;10754;51.106;7.164;2022-12-29T09:00:55;3.05;;;1.10;;
21192;SDS011;10754;51.106;7.164;2022-12-29T09:03:22;2.67;;;0.93;;
21192;SDS011;10754;51.106;7.164;2022-12-29T09:05:51;2.23;;;0.60;;
21192;SDS011;10754;51.106;7.164;2022-12-29T09:08:18;1.30;;;0.50;;
21192;SDS011;10754;51.106;7.164;2022-12-29T09:10:43;2.80;;;0.90;;
21192;SDS011;10754;51.106;7.164;2022-12-29T09:13:10;2.17;;;0.80;;
21192;SDS011;10754;51.106;7.164;2022-12-29T09:15:36;3.43;;;0.87;;
21192;SDS011;10754;51.106;7.164;2022-12-29T09:18:02;2.27;;;0.80;;
21192;SDS011;10754;51.106;7.164;2022-12-29T09:20:28;1.97;;;0.60;;
21192;SDS011;10754;51.106;7.164;2022-12-29T09:22:54;2.30;;;0.60;;
21192;SDS011;10754;51.106;7.164;2022-12-29T09:25:19;2.60;;;0.87;;
21192;SDS011;10754;51.106;7.164;2022-12-29T09:27:46;3.53;;;0.70;;
21192;SDS011;10754;51.106;7.164;2022-12-29T09:30:13;1.90;;;0.70;;
21192;SDS011;10754;51.106;7.164;2022-12-29T09:32:39;2.73;;;0.83;;
21192;SDS011;10754;51.106;7.164;2022-12-29T09:35:05;3.67;;;1.20;;
21192;SDS011;10754;51.106;7.164;2022-12-29T09:37:31;3.60;;;0.87;;
21192;SDS011;10754;51.106;7.164;2022-12-29T09:39:57;1.93;;;0.87;;
21192;SDS011;10754;51.106;7.164;2022-12-29T09:42:37;3.10;;;0.87;;
21192;SDS011;10754;51.106;7.164;2022-12-29T09:45:16;3.03;;;1.00;;
21192;SDS011;10754;51.106;7.164;2022-12-29T09:47:45;2.10;;;0.80;;
21192;SDS011;10754;51.106;7.164;2022-12-29T09:50:20;4.03;;;1.10;;
21192;SDS011;10754;51.106;7.164;2022-12-29T09:52:54;1.80;;;0.77;;
21192;SDS011;10754;51.106;7.164;2022-12-29T09:55:33;2.80;;;0.80;;
21192;SDS011;10754;51.106;7.164;2022-12-29T09:58:06;3.20;;;1.10;;
21192;SDS011;10754;51.106;7.164;2022-12-29T10:00:56;3.33;;;0.98;;
21192;SDS011;10754;51.106;7.164;2022-12-29T10:03:31;6.07;;;1.13;;
21192;SDS011;10754;51.106;7.164;2022-12-29T10:06:09;3.70;;;0.83;;
21192;SDS011;10754;51.106;7.164;2022-12-29T10:16:48;3.37;;;1.10;;
21192;SDS011;10754;51.106;7.164;2022-12-29T10:19:38;4.57;;;1.17;;
21192;SDS011;10754;51.106;7.164;2022-12-29T10:25:11;2.87;;;1.17;;
21192;SDS011;10754;51.106;7.164;2022-12-29T10:27:41;2.88;;;1.15;;
21192;SDS011;10754;51.106;7.164;2022-12-29T10:30:11;3.17;;;0.85;;
21192;SDS011;10754;51.106;7.164;2022-12-29T10:32:39;3.07;;;0.90;;
21192;SDS011;10754;51.106;7.164;2022-12-29T10:40:31;2.30;;;0.90;;
21192;SDS011;10754;51.106;7.164;2022-12-29T10:43:07;2.60;;;0.80;;
21192;SDS011;10754;51.106;7.164;2022-12-29T10:45:47;2.25;;;0.68;;
21192;SDS011;10754;51.106;7.164;2022-12-29T10:48:16;3.85;;;1.42;;
21192;SDS011;10754;51.106;7.164;2022-12-29T10:50:46;1.55;;;0.70;;
21192;SDS011;10754;51.106;7.164;2022-12-29T10:53:19;3.53;;;1.23;;
21192;SDS011;10754;51.106;7.164;2022-12-29T10:55:47;4.57;;;1.00;;
21192;SDS011;10754;51.106;7.164;2022-12-29T10:58:14;3.38;;;1.15;;
21192;SDS011;10754;51.106;7.164;2022-12-29T11:00:40;3.10;;;0.90;;
21192;SDS011;10754;51.106;7.164;2022-12-29T11:08:49;2.90;;;0.87;;
21192;SDS011;10754;51.106;7.164;2022-12-29T11:11:33;2.10;;;0.55;;
21192;SDS011;10754;51.106;7.164;2022-12-29T11:14:18;3.50;;;0.90;;
21192;SDS011;10754;51.106;7.164;2022-12-29T11:16:55;3.33;;;1.37;;
21192;SDS011;10754;51.106;7.164;2022-12-29T11:19:26;2.67;;;1.00;;
21192;SDS011;10754;51.106;7.164;2022-12-29T11:22:13;2.47;;;1.00;;
21192;SDS011;10754;51.106;7.164;2022-12-29T11:24:46;3.90;;;1.13;;
21192;SDS011;10754;51.106;7.164;2022-12-29T11:27:14;2.20;;;0.80;;
21192;SDS011;10754;51.106;7.164;2022-12-29T11:29:43;2.80;;;1.02;;
21192;SDS011;10754;51.106;7.164;2022-12-29T11:32:28;3.03;;;0.80;;
21192;SDS011;10754;51.106;7.164;2022-12-29T11:34:57;2.00;;;1.00;;
21192;SDS011;10754;51.106;7.164;2022-12-29T11:37:26;2.83;;;0.70;;
21192;SDS011;10754;51.106;7.164;2022-12-29T11:39:58;3.72;;;1.02;;
21192;SDS011;10754;51.106;7.164;2022-12-29T11:42:43;5.47;;;1.17;;
21192;SDS011;10754;51.106;7.164;2022-12-29T11:45:16;4.57;;;1.17;;
21192;SDS011;10754;51.106;7.164;2022-12-29T11:47:48;4.90;;;1.55;;
21192;SDS011;10754;51.106;7.164;2022-12-29T11:50:18;6.10;;;1.27;;
21192;SDS011;10754;51.106;7.164;2022-12-29T11:52:46;5.43;;;1.50;;
21192;SDS011;10754;51.106;7.164;2022-12-29T11:55:18;3.10;;;0.82;;
21192;SDS011;10754;51.106;7.164;2022-12-29T11:57:46;2.70;;;0.95;;
21192;SDS011;10754;51.106;7.164;2022-12-29T12:00:15;4.53;;;1.20;;
21192;SDS011;10754;51.106;7.164;2022-12-29T12:03:03;2.90;;;0.98;;
21192;SDS011;10754;51.106;7.164;2022-12-29T12:05:46;4.95;;;1.33;;
21192;SDS011;10754;51.106;7.164;2022-12-29T12:08:19;4.10;;;1.07;;
21192;SDS011;10754;51.106;7.164;2022-12-29T12:11:11;2.95;;;1.05;;
21192;SDS011;10754;51.106;7.164;2022-12-29T12:16:50;4.28;;;1.10;;
21192;SDS011;10754;51.106;7.164;2022-12-29T12:19:24;3.75;;;1.05;;
21192;SDS011;10754;51.106;7.164;2022-12-29T12:21:54;3.97;;;1.10;;
21192;SDS011;10754;51.106;7.164;2022-12-29T12:27:31;3.45;;;0.98;;
21192;SDS011;10754;51.106;7.164;2022-12-29T12:30:09;3.63;;;1.05;;
21192;SDS011;10754;51.106;7.164;2022-12-29T12:32:41;4.40;;;1.00;;
21192;SDS011;10754;51.106;7.164;2022-12-29T12:35:11;3.78;;;1.10;;
21192;SDS011;10754;51.106;7.164;2022-12-29T12:48:56;3.67;;;0.97;;
21192;SDS011;10754;51.106;7.164;2022-12-29T12:59:50;3.53;;;0.97;;
21192;SDS011;10754;51.106;7.164;2022-12-29T13:02:49;4.33;;;1.00;;
21192;SDS011;10754;51.106;7.164;2022-12-29T13:06:06;2.77;;;1.07;;
21192;SDS011;10754;51.106;7.164;2022-12-29T13:08:30;4.33;;;1.10;;
21192;SDS011;10754;51.106;7.164;2022-12-29T13:19:28;1.97;;;0.80;;
21192;SDS011;10754;51.106;7.164;2022-12-29T13:22:01;2.33;;;0.80;;
21192;SDS011;10754;51.106;7.164;2022-12-29T13:25:04;3.33;;;1.83;;
21192;SDS011;10754;51.106;7.164;2022-12-29T13:30:20;3.67;;;1.37;;
21192;SDS011;10754;51.106;7.164;2022-12-29T13:38:32;3.55;;;0.98;;
21192;SDS011;10754;51.106;7.164;2022-12-29T13:41:12;4.60;;;1.17;;
21192;SDS011;10754;51.106;7.164;2022-12-29T13:43:57;4.03;;;1.30;;
21192;SDS011;10754;51.106;7.164;2022-12-29T13:46:27;2.47;;;0.97;;
21192;SDS011;10754;51.106;7.164;2022-12-29T13:49:04;3.63;;;1.53;;
21192;SDS011;10754;51.106;7.164;2022-12-29T13:51:49;5.13;;;1.37;;
21192;SDS011;10754;51.106;7.164;2022-12-29T13:56:59;4.83;;;1.30;;
21192;SDS011;10754;51.106;7.164;2022-12-29T14:07:48;3.90;;;1.27;;
21192;SDS011;10754;51.106;7.164;2022-12-29T14:15:38;2.90;;;0.87;;
21192;SDS011;10754;51.106;7.164;2022-12-29T14:20:36;2.05;;;0.82;;
21192;SDS011;10754;51.106;7.164;2022-12-29T14:28:22;3.77;;;0.93;;
21192;SDS011;10754;51.106;7.164;2022-12-29T14:30:53;1.83;;;0.60;;
21192;SDS011;10754;51.106;7.164;2022-12-29T14:33:21;2.30;;;0.77;;
21192;SDS011;10754;51.106;7.164;2022-12-29T14:35:50;3.30;;;0.70;;
21192;SDS011;10754;51.106;7.164;2022-12-29T14:38:27;3.20;;;1.10;;
21192;SDS011;10754;51.106;7.164;2022-12-29T14:41:15;2.80;;;0.60;;
21192;SDS011;10754;51.106;7.164;2022-12-29T14:43:43;1.87;;;0.50;;
21192;SDS011;10754;51.106;7.164;2022-12-29T14:46:22;2.93;;;0.80;;
21192;SDS011;10754;51.106;7.164;2022-12-29T14:48:47;1.57;;;0.67;;
21192;SDS011;10754;51.106;7.164;2022-12-29T14:51:29;2.03;;;0.60;;
21192;SDS011;10754;51.106;7.164;2022-12-29T14:53:57;2.63;;;0.90;;
21192;SDS011;10754;51.106;7.164;2022-12-29T14:56:27;2.80;;;0.83;;
21192;SDS011;10754;51.106;7.164;2022-12-29T14:59:00;2.27;;;0.63;;
21192;SDS011;10754;51.106;7.164;2022-12-29T15:01:37;1.60;;;0.97;;
21192;SDS011;10754;51.106;7.164;2022-12-29T15:06:48;3.07;;;1.00;;
21192;SDS011;10754;51.106;7.164;2022-12-29T15:09:19;3.33;;;1.07;;
21192;SDS011;10754;51.106;7.164;2022-12-29T15:12:06;3.38;;;0.90;;
21192;SDS011;10754;51.106;7.164;2022-12-29T15:14:48;2.75;;;0.90;;
21192;SDS011;10754;51.106;7.164;2022-12-29T15:17:24;3.67;;;0.70;;
21192;SDS011;10754;51.106;7.164;2022-12-29T15:19:52;3.70;;;1.10;;
21192;SDS011;10754;51.106;7.164;2022-12-29T15:22:18;3.07;;;0.73;;
21192;SDS011;10754;51.106;7.164;2022-12-29T15:24:44;2.70;;;1.23;;
21192;SDS011;10754;51.106;7.164;2022-12-29T15:27:13;2.67;;;1.03;;
21192;SDS011;10754;51.106;7.164;2022-12-29T15:29:41;3.70;;;1.17;;
21192;SDS011;10754;51.106;7.164;2022-12-29T15:34:40;2.53;;;0.87;;
21192;SDS011;10754;51.106;7.164;2022-12-29T15:37:16;4.27;;;1.20;;
21192;SDS011;10754;51.106;7.164;2022-12-29T15:39:43;3.90;;;1.43;;
21192;SDS011;10754;51.106;7.164;2022-12-29T15:42:12;4.68;;;1.15;;
21192;SDS011;10754;51.106;7.164;2022-12-29T15:44:52;1.83;;;1.10;;
21192;SDS011;10754;51.106;7.164;2022-12-29T15:47:21;4.28;;;1.55;;
21192;SDS011;10754;51.106;7.164;2022-12-29T15:49:49;2.78;;;0.77;;
21192;SDS011;10754;51.106;7.164;2022-12-29T15:52:18;3.27;;;1.00;;
21192;SDS011;10754;51.106;7.164;2022-12-29T15:54:45;3.90;;;0.97;;
21192;SDS011;10754;51.106;7.164;2022-12-29T15:57:21;3.58;;;1.15;;
21192;SDS011;10754;51.106;7.164;2022-12-29T15:59:48;3.78;;;1.02;;
21192;SDS011;10754;51.106;7.164;2022-12-29T16:02:13;4.17;;;1.63;;
21192;SDS011;10754;51.106;7.164;2022-12-29T16:04:39;2.40;;;1.42;;
21192;SDS011;10754;51.106;7.164;2022-12-29T16:07:21;3.73;;;1.37;;
21192;SDS011;10754;51.106;7.164;2022-12-29T16:09:59;4.50;;;1.17;;
21192;SDS011;10754;51.106;7.164;2022-12-29T16:12:33;2.50;;;1.20;;
21192;SDS011;10754;51.106;7.164;2022-12-29T16:15:01;5.30;;;1.50;;
21192;SDS011;10754;51.106;7.164;2022-12-29T16:17:47;4.67;;;1.20;;
21192;SDS011;10754;51.106;7.164;2022-12-29T16:22:46;2.93;;;0.83;;
21192;SDS011;10754;51.106;7.164;2022-12-29T16:25:21;4.57;;;1.50;;
21192;SDS011;10754;51.106;7.164;2022-12-29T16:27:49;2.97;;;1.07;;
21192;SDS011;10754;51.106;7.164;2022-12-29T16:30:18;3.87;;;1.17;;
21192;SDS011;10754;51.106;7.164;2022-12-29T16:32:50;4.57;;;1.30;;
21192;SDS011;10754;51.106;7.164;2022-12-29T16:35:21;4.53;;;1.90;;
21192;SDS011;10754;51.106;7.164;2022-12-29T16:48:52;3.77;;;1.30;;
21192;SDS011;10754;51.106;7.164;2022-12-29T16:51:15;5.13;;;1.80;;
21192;SDS011;10754;51.106;7.164;2022-12-29T16:53:48;4.20;;;1.37;;
21192;SDS011;10754;51.106;7.164;2022-12-29T16:56:17;4.27;;;1.60;;
21192;SDS011;10754;51.106;7.164;2022-12-29T16:58:46;3.30;;;1.23;;
21192;SDS011;10754;51.106;7.164;2022-12-29T17:01:13;4.07;;;1.40;;
21192;SDS011;10754;51.106;7.164;2022-12-29T17:03:44;3.90;;;1.03;;
21192;SDS011;10754;51.106;7.164;2022-12-29T17:06:20;4.83;;;1.53;;
21192;SDS011;10754;51.106;7.164;2022-12-29T17:08:47;4.03;;;1.33;;
21192;SDS011;10754;51.106;7.164;2022-12-29T17:11:21;3.80;;;1.63;;
21192;SDS011;10754;51.106;7.164;2022-12-29T17:14:20;5.33;;;2.10;;
21192;SDS011;10754;51.106;7.164;2022-12-29T17:16:58;5.67;;;1.20;;